Terminal Aerodrome Forecast
Issued by NWS Billings, MT

Home | Current Version | Previous Version | Graphics & Text | Print | Product List | Glossary On
Versions: 1 2 3 4 5 6 7 8 9 10 11 12 13 14 15 16 17 18 19 20 21 22 23 24 25 26 27 28 29 30 31 32 33 34 35 36 37 38
000
FTUS45 KBYZ 311128
TAFMLS
TAF
KMLS 311128Z 3112/0112 04011KT P6SM SKC
     FM311500 08006KT 3SM -FZDZ SCT003 OVC008
     FM311900 35011KT 2SM -SN BR BKN005 OVC010
     FM312300 03013KT 4SM -SN BR BKN005 OVC010
     FM010300 03009KT 6SM -SN BKN020 OVC030
     FM010900 02006KT P6SM -SN BKN020 OVC030=

USA.gov is the U.S. government's official web portal to all federal, state and local government web resources and services.